Time;durP1;ratioP1;P1;durP2;ratioP2;P2;SDS_P1;SDS_P2;PMS_P1;PMS_P2;Temp;Humidity;BMP_temperature;BMP_pressure;BME280_temperature;BME280_humidity;BME280_pressure;Samples;Min_cycle;Max_cycle;Signal;HPM_P1;HPM_P2
2023/01/17 00:02:09;;;;;;;;;;;;;;;;;;;;;
2023/01/17 00:16:35;;;;;;;6.68;5.15;;;;;;;;;;6230285;23;20079;-93
2023/01/17 01:37:27;;;;;;;5.70;4.00;;;;;;;;;;6261341;23;20031;-91
2023/01/17 01:50:29;;;;;;;6.28;4.28;;;;;;;;;;6065599;23;20035;-91
2023/01/17 01:56:48;;;;;;;5.28;4.10;;;;;;;;;;6040646;23;20006;-91
2023/01/17 02:02:55;;;;;;;6.68;4.22;;;;;;;;;;6010710;23;20073;-90
2023/01/17 02:06:01;;;;;;;6.40;4.28;;;;;;;;;;6047181;23;19991;-91
2023/01/17 02:14:43;;;;;;;7.35;4.40;;;;;;;;;;6167610;23;19990;-93
2023/01/17 02:17:34;;;;;;;7.03;3.92;;;;;;;;;;6144584;23;20009;-92
2023/01/17 02:23:24;;;;;;;5.57;3.95;;;;;;;;;;6161897;23;20009;-93
2023/01/17 02:42:01;;;;;;;7.72;4.45;;;;;;;;;;5881263;24;20014;-92
2023/01/17 02:51:42;;;;;;;;;;;;;;;;;;;;;
2023/01/17 02:54:27;;;;;;;6.68;4.95;;;;;;;;;;5827867;24;20504;-93
2023/01/17 02:57:14;;;;;;;7.97;4.95;;;;;;;;;;5846957;24;20018;-92
2023/01/17 03:00:25;;;;;;;;;;;;;;;;;;;;;
2023/01/17 03:06:12;;;;;;;7.82;4.60;;;;;;;;;;5863193;24;20089;-93
2023/01/17 03:08:49;;;;;;;7.13;4.68;;;;;;;;;;5899556;24;20044;-91
2023/01/17 03:11:25;;;;;;;;;;;;;;;;;;;;;
2023/01/17 03:14:23;;;;;;;6.57;4.88;;;;;;;;;;6008958;23;20086;-94
2023/01/17 03:20:19;;;;;;;9.73;5.00;;;;;;;;;;6124912;23;20006;-90
2023/01/17 03:23:15;;;;;;;;;;;;;;;;;;;;;
2023/01/17 03:25:54;;;;;;;;;;;;;;;;;;;;;
2023/01/17 03:28:20;;;;;;;;;;;;;;;;;;6245992;23;20084;-93
2023/01/17 03:30:48;;;;;;;6.93;4.75;;;;;;;;;;6244250;23;20168;-93
2023/01/17 03:33:17;;;;;;;;;;;;;;;;;;6220857;23;20466;-93
2023/01/17 03:36:20;;;;;;;;;;;;;;;;;;;;;
2023/01/17 03:38:47;;;;;;;9.20;4.70;;;;;;;;;;6247237;23;20100;-95
2023/01/17 03:41:37;;;;;;;6.63;4.63;;;;;;;;;;6221567;23;20012;-93
2023/01/17 03:44:03;;;;;;;10.68;5.25;;;;;;;;;;6218176;23;20000;-92
2023/01/17 03:46:29;;;;;;;8.90;4.85;;;;;;;;;;6218767;23;20000;-93
2023/01/17 03:48:55;;;;;;;7.18;4.95;;;;;;;;;;6219427;23;19996;-94
2023/01/17 03:51:26;;;;;;;7.47;5.00;;;;;;;;;;6218146;23;20091;-93
2023/01/17 03:53:55;;;;;;;5.85;4.43;;;;;;;;;;6222329;23;20390;-93
2023/01/17 03:56:21;;;;;;;8.52;5.45;;;;;;;;;;6226101;23;20004;-94
2023/01/17 03:58:52;;;;;;;6.85;4.70;;;;;;;;;;6225180;23;20060;-94
2023/01/17 04:01:51;;;;;;;8.55;5.10;;;;;;;;;;6272103;23;19999;-88
2023/01/17 04:07:42;;;;;;;9.98;5.30;;;;;;;;;;6211178;23;20121;-90
2023/01/17 04:10:10;;;;;;;7.75;5.22;;;;;;;;;;6113512;23;20028;-94
2023/01/17 04:12:37;;;;;;;6.47;4.97;;;;;;;;;;6123765;23;20006;-91
2023/01/17 04:15:03;;;;;;;7.50;5.43;;;;;;;;;;6098278;23;20753;-94
2023/01/17 04:17:29;;;;;;;7.00;5.30;;;;;;;;;;6099380;23;20013;-91
2023/01/17 04:20:28;;;;;;;;;;;;;;;;;;;;;
2023/01/17 04:23:22;;;;;;;7.55;5.55;;;;;;;;;;6151993;23;19998;-92
2023/01/17 04:25:50;;;;;;;6.38;5.05;;;;;;;;;;6124253;23;20038;-92
2023/01/17 04:28:33;;;;;;;5.95;5.18;;;;;;;;;;6152423;23;19998;-90
2023/01/17 04:30:59;;;;;;;8.38;5.60;;;;;;;;;;6146280;23;20025;-94
2023/01/17 04:33:25;;;;;;;7.57;5.55;;;;;;;;;;6094200;23;20014;-94
2023/01/17 04:35:54;;;;;;;9.15;5.80;;;;;;;;;;6109954;23;20390;-90
2023/01/17 04:38:25;;;;;;;7.75;5.40;;;;;;;;;;6105925;23;20006;-93
2023/01/17 04:41:03;;;;;;;7.90;5.72;;;;;;;;;;6134432;23;20008;-91
2023/01/17 04:43:29;;;;;;;7.75;5.65;;;;;;;;;;6199617;23;20028;-91
2023/01/17 04:45:55;;;;;;;6.88;5.30;;;;;;;;;;6220827;23;20091;-93
2023/01/17 05:32:40;;;;;;;3.00;2.80;;;;;;;;;;6191723;22;20017;-94
2023/01/17 05:35:07;;;;;;;3.00;2.50;;;;;;;;;;6169869;23;20061;-93
2023/01/17 05:37:33;;;;;;;2.50;2.08;;;;;;;;;;6172441;23;20001;-91
2023/01/17 05:39:59;;;;;;;2.35;2.15;;;;;;;;;;6172874;23;20005;-93
2023/01/17 05:42:57;;;;;;;1.90;1.80;;;;;;;;;;6168299;23;20334;-92
2023/01/17 05:45:27;;;;;;;1.95;1.80;;;;;;;;;;6164321;23;20009;-93
2023/01/17 05:48:56;;;;;;;2.42;1.88;;;;;;;;;;6163990;23;20092;-93
2023/01/17 05:51:16;;;;;;;;;;;;;;;;;;;;;
2023/01/17 05:53:44;;;;;;;2.00;1.67;;;;;;;;;;6195123;23;20021;-94
2023/01/17 05:56:30;;;;;;;1.80;1.70;;;;;;;;;;6193008;23;20045;-93
2023/01/17 05:58:59;;;;;;;2.22;1.65;;;;;;;;;;6169815;23;20005;-90
2023/01/17 06:01:41;;;;;;;1.75;1.65;;;;;;;;;;6180137;23;19981;-93
2023/01/17 06:04:30;;;;;;;1.65;1.50;;;;;;;;;;6177457;23;20020;-91
2023/01/17 06:07:03;;;;;;;1.80;1.70;;;;;;;;;;6188662;23;20020;-90
2023/01/17 06:09:50;;;;;;;;;;;;;;;;;;6174887;23;20064;-91
2023/01/17 06:12:24;;;;;;;1.70;1.60;;;;;;;;;;6200255;23;19904;-93
2023/01/17 06:14:58;;;;;;;1.75;1.65;;;;;;;;;;6175487;23;20008;-92
2023/01/17 06:20:51;;;;;;;1.70;1.60;;;;;;;;;;6122544;23;20058;-91
2023/01/17 06:27:07;;;;;;;;;;;;;;;;;;;;;
2023/01/17 06:29:56;;;;;;;2.40;2.20;;;;;;;;;;6145913;23;20006;-92
2023/01/17 06:33:02;;;;;;;2.60;2.40;;;;;;;;;;6091499;23;20259;-91
2023/01/17 06:35:48;;;;;;;2.42;2.22;;;;;;;;;;6089338;23;20033;-91
2023/01/17 06:38:31;;;;;;;2.20;2.10;;;;;;;;;;6067039;23;20046;-92
2023/01/17 06:41:09;;;;;;;;;;;;;;;;;;;;;
2023/01/17 06:46:48;;;;;;;;;;;;;;;;;;;;;
2023/01/17 06:49:37;;;;;;;;;;;;;;;;;;;;;
2023/01/17 06:52:37;;;;;;;;;;;;;;;;;;;;;
2023/01/17 06:55:05;;;;;;;2.55;2.35;;;;;;;;;;6060495;23;20037;-91
2023/01/17 06:57:56;;;;;;;2.55;2.35;;;;;;;;;;6073124;23;20542;-93
2023/01/17 07:00:45;;;;;;;2.70;2.50;;;;;;;;;;6109014;23;20006;-90
2023/01/17 07:03:26;;;;;;;2.85;2.65;;;;;;;;;;6128164;23;20005;-92
2023/01/17 07:06:10;;;;;;;3.20;2.88;;;;;;;;;;6172395;23;20005;-92
2023/01/17 07:08:44;;;;;;;2.90;2.70;;;;;;;;;;6200239;23;20008;-91
2023/01/17 07:11:19;;;;;;;3.10;2.80;;;;;;;;;;6195666;23;20014;-91
2023/01/17 07:13:54;;;;;;;3.15;2.90;;;;;;;;;;6172986;23;20092;-91
2023/01/17 07:16:31;;;;;;;3.22;2.95;;;;;;;;;;6202383;23;20334;-90
2023/01/17 07:19:10;;;;;;;3.40;3.10;;;;;;;;;;6171949;23;20532;-92
2023/01/17 07:21:47;;;;;;;2.80;2.60;;;;;;;;;;6171780;23;20012;-91
2023/01/17 07:24:15;;;;;;;3.40;3.10;;;;;;;;;;6169653;23;20349;-92
2023/01/17 07:26:49;;;;;;;3.10;2.90;;;;;;;;;;6168952;23;20001;-92
2023/01/17 07:29:25;;;;;;;;;;;;;;;;;;;;;
2023/01/17 07:31:52;;;;;;;3.10;2.90;;;;;;;;;;6198824;23;20036;-90
2023/01/17 07:34:30;;;;;;;3.08;2.78;;;;;;;;;;6171651;23;20005;-91
2023/01/17 07:37:07;;;;;;;3.42;3.13;;;;;;;;;;6172971;23;20005;-91
2023/01/17 07:39:52;;;;;;;3.40;3.20;;;;;;;;;;6141029;23;20074;-91
2023/01/17 07:42:37;;;;;;;3.65;3.30;;;;;;;;;;6109328;23;20348;-92
2023/01/17 07:45:49;;;;;;;4.03;3.70;;;;;;;;;;6109824;23;20010;-90
2023/01/17 07:48:55;;;;;;;4.60;3.90;;;;;;;;;;6022766;23;20052;-94
2023/01/17 07:51:45;;;;;;;4.20;3.80;;;;;;;;;;6023497;23;20016;-92
2023/01/17 07:54:35;;;;;;;4.40;4.00;;;;;;;;;;6027905;23;20075;-93
2023/01/17 08:00:04;;;;;;;4.95;4.55;;;;;;;;;;6022902;23;20012;-94
2023/01/17 08:03:08;;;;;;;4.82;4.35;;;;;;;;;;6016700;23;20468;-93
2023/01/17 08:09:09;;;;;;;6.85;4.50;;;;;;;;;;6047606;23;20177;-91
2023/01/17 08:12:05;;;;;;;;;;;;;;;;;;;;;
2023/01/17 08:18:09;;;;;;;4.80;4.40;;;;;;;;;;5997248;23;20019;-91
2023/01/17 08:20:44;;;;;;;5.17;4.67;;;;;;;;;;6172852;23;20009;-92
2023/01/17 08:23:22;;;;;;;6.53;5.20;;;;;;;;;;6173602;23;20511;-92
2023/01/17 08:26:20;;;;;;;5.80;5.20;;;;;;;;;;6174763;23;20013;-89
2023/01/17 08:29:06;;;;;;;6.57;4.73;;;;;;;;;;6197777;23;20005;-93
2023/01/17 08:31:44;;;;;;;;;;;;;;;;;;;;;
2023/01/17 08:37:06;;;;;;;6.50;5.80;;;;;;;;;;6127140;23;20010;-91
2023/01/17 08:43:07;;;;;;;;;;;;;;;;;;;;;
2023/01/17 08:46:06;;;;;;;6.10;5.60;;;;;;;;;;6082061;23;20034;-93
2023/01/17 08:48:42;;;;;;;;;;;;;;;;;;;;;
2023/01/17 08:51:25;;;;;;;7.50;6.40;;;;;;;;;;6010796;23;20489;-90
2023/01/17 08:54:21;;;;;;;;;;;;;;;;;;;;;
2023/01/17 08:57:23;;;;;;;6.75;6.07;;;;;;;;;;6080129;23;20036;-90
2023/01/17 09:00:06;;;;;;;6.07;5.53;;;;;;;;;;6052801;23;20075;-91
2023/01/17 09:02:58;;;;;;;;;;;;;;;;;;;;;
2023/01/17 09:05:59;;;;;;;;;;;;;;;;;;;;;
2023/01/17 09:08:31;;;;;;;6.15;5.55;;;;;;;;;;6165573;23;20082;-91
2023/01/17 09:17:07;;;;;;;;;;;;;;;;;;;;;
2023/01/17 09:19:43;;;;;;;5.30;4.82;;;;;;;;;;6063081;23;20025;-92
2023/01/17 09:22:36;;;;;;;4.80;4.40;;;;;;;;;;6085614;23;20007;-93
2023/01/17 09:25:30;;;;;;;5.40;4.90;;;;;;;;;;6082826;23;20149;-92
2023/01/17 09:40:48;;;;;;;;;;;;;;;;;;;;;
2023/01/17 09:44:24;;;;;;;;;;;;;;;;;;;;;
2023/01/17 09:47:38;;;;;;;;;;;;;;;;;;;;;
2023/01/17 09:53:20;;;;;;;;;;;;;;;;;;;;;
2023/01/17 09:55:59;;;;;;;;;;;;;;;;;;;;;
2023/01/17 09:58:53;;;;;;;4.30;3.90;;;;;;;;;;6013909;23;20035;-91
2023/01/17 10:01:38;;;;;;;;;;;;;;;;;;;;;
2023/01/17 10:07:49;;;;;;;;;;;;;;;;;;;;;
2023/01/17 10:16:58;;;;;;;3.53;3.22;;;;;;;;;;5968367;23;20023;-94
2023/01/17 10:23:03;;;;;;;;;;;;;;;;;;;;;
2023/01/17 10:29:26;;;;;;;4.07;3.67;;;;;;;;;;6073807;23;20006;-94
2023/01/17 10:31:55;;;;;;;5.35;4.22;;;;;;;;;;6123773;23;20029;-93
2023/01/17 10:34:27;;;;;;;4.72;4.32;;;;;;;;;;6124774;23;20037;-92
2023/01/17 10:37:09;;;;;;;;;;;;;;;;;;;;;
2023/01/17 10:39:38;;;;;;;8.65;7.85;;;;;;;;;;6186324;23;20075;-93
2023/01/17 10:45:27;;;;;;;;;;;;;;;;;;;;;
2023/01/17 10:48:29;;;;;;;11.43;10.25;;;;;;;;;;6185777;23;20084;-94
2023/01/17 10:54:03;;;;;;;11.88;10.68;;;;;;;;;;6174819;23;20440;-91
2023/01/17 10:56:29;;;;;;;11.47;10.27;;;;;;;;;;6184231;23;20012;-91
2023/01/17 10:59:31;;;;;;;12.90;10.25;;;;;;;;;;6184411;23;20012;-91
2023/01/17 11:02:06;;;;;;;13.27;11.85;;;;;;;;;;6137381;23;20421;-91
2023/01/17 11:04:42;;;;;;;;;;;;;;;;;;;;;
2023/01/17 11:07:11;;;;;;;12.43;11.15;;;;;;;;;;6184979;23;20021;-92
2023/01/17 11:09:44;;;;;;;9.95;9.00;;;;;;;;;;6183949;23;20029;-92
2023/01/17 11:12:32;;;;;;;7.50;6.80;;;;;;;;;;6182450;23;20012;-94
2023/01/17 11:15:03;;;;;;;4.85;4.25;;;;;;;;;;6183631;23;20075;-91
2023/01/17 11:17:30;;;;;;;4.30;3.90;;;;;;;;;;6182651;23;20406;-94
2023/01/17 11:23:22;;;;;;;4.05;3.63;;;;;;;;;;6142492;23;20005;-93
2023/01/17 11:26:02;;;;;;;4.05;3.60;;;;;;;;;;6185133;23;20012;-90
2023/01/17 11:28:31;;;;;;;4.10;3.70;;;;;;;;;;6186115;23;20350;-90
2023/01/17 11:31:21;;;;;;;5.82;3.92;;;;;;;;;;6183599;23;20104;-91
2023/01/17 11:33:54;;;;;;;4.18;3.78;;;;;;;;;;6175271;23;20012;-91
2023/01/17 11:36:26;;;;;;;4.82;3.42;;;;;;;;;;6186678;23;20009;-93
2023/01/17 11:39:01;;;;;;;3.88;3.50;;;;;;;;;;6185375;23;20007;-93
2023/01/17 11:41:32;;;;;;;3.85;3.22;;;;;;;;;;6183126;23;20060;-92
2023/01/17 11:43:59;;;;;;;3.80;3.50;;;;;;;;;;6182327;23;20001;-91
2023/01/17 11:46:27;;;;;;;6.72;3.55;;;;;;;;;;6183764;23;20427;-90
2023/01/17 11:48:58;;;;;;;5.38;3.50;;;;;;;;;;6183584;23;20009;-90
2023/01/17 11:51:32;;;;;;;4.50;4.10;;;;;;;;;;6182610;23;20082;-92
2023/01/17 11:54:24;;;;;;;6.65;3.97;;;;;;;;;;6182677;23;20001;-91
2023/01/17 11:56:56;;;;;;;5.00;3.50;;;;;;;;;;6178788;23;20008;-91
2023/01/17 11:59:30;;;;;;;4.55;3.17;;;;;;;;;;6185568;23;20005;-91
2023/01/17 12:02:00;;;;;;;5.20;3.90;;;;;;;;;;6183682;23;20047;-90
2023/01/17 12:04:38;;;;;;;4.43;3.80;;;;;;;;;;6183116;23;20040;-94
2023/01/17 12:07:04;;;;;;;8.05;3.88;;;;;;;;;;6182621;23;20334;-92
2023/01/17 12:09:47;;;;;;;4.28;3.88;;;;;;;;;;6181450;23;20029;-92
2023/01/17 12:18:54;;;;;;;5.85;4.10;;;;;;;;;;6122985;23;20605;-90
2023/01/17 12:21:29;;;;;;;4.90;4.15;;;;;;;;;;6179021;23;20005;-91
2023/01/17 12:24:01;;;;;;;5.25;3.83;;;;;;;;;;6182553;23;20441;-90
2023/01/17 12:26:41;;;;;;;5.47;3.53;;;;;;;;;;6183364;23;20009;-90
2023/01/17 12:29:26;;;;;;;4.50;3.40;;;;;;;;;;6183925;23;20005;-88
2023/01/17 12:31:55;;;;;;;4.72;3.22;;;;;;;;;;6182962;23;20023;-91
2023/01/17 12:34:25;;;;;;;3.47;2.70;;;;;;;;;;6184166;23;20011;-91
2023/01/17 12:36:51;;;;;;;3.63;2.80;;;;;;;;;;6183258;23;20040;-92
2023/01/17 12:39:20;;;;;;;3.33;2.72;;;;;;;;;;6182788;23;20056;-91
2023/01/17 12:41:55;;;;;;;4.60;2.67;;;;;;;;;;6183438;23;20101;-92
2023/01/17 12:44:29;;;;;;;3.75;2.92;;;;;;;;;;6184199;23;20456;-92
2023/01/17 12:47:02;;;;;;;3.90;2.85;;;;;;;;;;6182826;23;20433;-90
2023/01/17 12:49:30;;;;;;;7.28;2.70;;;;;;;;;;6181216;23;20012;-91
2023/01/17 12:51:59;;;;;;;3.72;2.53;;;;;;;;;;6182002;23;20059;-93
2023/01/17 12:54:49;;;;;;;4.32;2.95;;;;;;;;;;6182752;23;20012;-92
2023/01/17 12:57:19;;;;;;;3.70;2.92;;;;;;;;;;6171493;23;20084;-91
2023/01/17 12:59:53;;;;;;;3.22;2.83;;;;;;;;;;6182257;23;20027;-91
2023/01/17 13:02:30;;;;;;;4.03;2.55;;;;;;;;;;6182043;23;20009;-91
2023/01/17 13:05:06;;;;;;;3.60;2.67;;;;;;;;;;6208507;23;20009;-89
2023/01/17 13:07:39;;;;;;;3.22;2.28;;;;;;;;;;6208695;23;20009;-92
2023/01/17 13:10:23;;;;;;;4.70;2.53;;;;;;;;;;6204762;23;20020;-90
2023/01/17 13:13:01;;;;;;;3.22;2.35;;;;;;;;;;6185885;23;20453;-89
2023/01/17 13:15:27;;;;;;;;;;;;;;;;;;6183715;23;20025;-90
2023/01/17 13:18:00;;;;;;;4.07;2.10;;;;;;;;;;6182969;23;19900;-92
2023/01/17 13:20:44;;;;;;;3.75;2.22;;;;;;;;;;6181655;23;20087;-90
2023/01/17 13:23:27;;;;;;;5.70;2.40;;;;;;;;;;6180772;23;20005;-91
2023/01/17 13:25:55;;;;;;;3.90;2.40;;;;;;;;;;6180371;23;20062;-90
2023/01/17 13:28:30;;;;;;;3.70;2.63;;;;;;;;;;6181189;23;20005;-92
2023/01/17 13:31:17;;;;;;;3.72;2.30;;;;;;;;;;6182365;23;20067;-90
2023/01/17 13:34:01;;;;;;;4.70;2.28;;;;;;;;;;6180935;23;20337;-91
2023/01/17 13:36:46;;;;;;;4.60;2.22;;;;;;;;;;6182921;23;20001;-94
2023/01/17 13:39:31;;;;;;;3.63;2.38;;;;;;;;;;6155615;23;20344;-90
2023/01/17 13:42:07;;;;;;;5.05;2.60;;;;;;;;;;6156759;23;20029;-91
2023/01/17 13:44:33;;;;;;;3.22;2.28;;;;;;;;;;6155515;23;20055;-91
2023/01/17 13:47:02;;;;;;;6.25;2.60;;;;;;;;;;6156970;23;20056;-91
2023/01/17 13:49:29;;;;;;;4.78;2.60;;;;;;;;;;6158293;23;20001;-90
2023/01/17 13:52:09;;;;;;;5.30;2.45;;;;;;;;;;6158178;23;20434;-91
2023/01/17 13:54:44;;;;;;;4.05;2.33;;;;;;;;;;6157629;23;20005;-91
2023/01/17 13:57:28;;;;;;;2.97;2.35;;;;;;;;;;6158365;23;20052;-89
2023/01/17 13:59:58;;;;;;;17.80;9.48;;;;;;;;;;6158149;23;20037;-91
2023/01/17 14:02:34;;;;;;;4.75;2.70;;;;;;;;;;6159301;23;20005;-92
2023/01/17 14:05:22;;;;;;;4.05;2.55;;;;;;;;;;6158125;23;20044;-91
2023/01/17 14:07:48;;;;;;;4.70;2.60;;;;;;;;;;6157533;23;20024;-91
2023/01/17 14:10:20;;;;;;;4.68;2.60;;;;;;;;;;6157133;23;20357;-90
2023/01/17 14:12:46;;;;;;;5.93;2.60;;;;;;;;;;6157281;23;20001;-91
2023/01/17 14:15:19;;;;;;;4.78;2.60;;;;;;;;;;6183412;23;20008;-90
2023/01/17 14:17:50;;;;;;;4.63;2.70;;;;;;;;;;6156627;23;20438;-91
2023/01/17 14:20:20;;;;;;;3.72;2.38;;;;;;;;;;6157641;23;20009;-91
2023/01/17 14:22:48;;;;;;;4.80;2.80;;;;;;;;;;6157720;23;20004;-90
2023/01/17 14:25:19;;;;;;;3.58;2.40;;;;;;;;;;6183892;23;20001;-91
2023/01/17 14:27:47;;;;;;;3.90;2.60;;;;;;;;;;6157453;23;20005;-91
2023/01/17 14:30:16;;;;;;;5.32;2.50;;;;;;;;;;6157353;23;20334;-91
2023/01/17 14:33:00;;;;;;;8.30;2.80;;;;;;;;;;6157172;23;20012;-93
2023/01/17 14:35:29;;;;;;;5.35;2.55;;;;;;;;;;6157417;23;20005;-91
2023/01/17 14:38:04;;;;;;;4.70;2.72;;;;;;;;;;6157607;23;20008;-92
2023/01/17 14:40:36;;;;;;;3.28;2.95;;;;;;;;;;6158413;23;20005;-92
2023/01/17 14:43:05;;;;;;;5.55;2.80;;;;;;;;;;6184705;23;20001;-92
2023/01/17 14:45:33;;;;;;;5.60;3.00;;;;;;;;;;6158237;23;20005;-90
2023/01/17 14:48:00;;;;;;;3.15;2.80;;;;;;;;;;6184821;23;19997;-92
2023/01/17 14:50:30;;;;;;;4.68;2.70;;;;;;;;;;6183422;23;20100;-92
2023/01/17 14:53:29;;;;;;;4.53;2.80;;;;;;;;;;6157221;23;20005;-89
2023/01/17 14:55:57;;;;;;;3.28;2.80;;;;;;;;;;6135018;23;20084;-92
2023/01/17 14:58:25;;;;;;;6.18;3.00;;;;;;;;;;6156829;23;20044;-92
2023/01/17 15:00:53;;;;;;;4.30;2.75;;;;;;;;;;6157133;23;20015;-90
2023/01/17 15:03:21;;;;;;;3.55;2.85;;;;;;;;;;6156678;23;20408;-91
2023/01/17 15:05:47;;;;;;;;;;;;;;;;;;6157487;23;20422;-89
2023/01/17 15:08:18;;;;;;;3.95;3.03;;;;;;;;;;6157474;23;19900;-91
2023/01/17 15:11:04;;;;;;;3.80;3.10;;;;;;;;;;6157536;23;20104;-90
2023/01/17 15:13:39;;;;;;;5.22;2.90;;;;;;;;;;6157936;23;20076;-91
2023/01/17 15:16:20;;;;;;;6.57;3.03;;;;;;;;;;6158275;23;20001;-91
2023/01/17 15:18:47;;;;;;;6.47;3.38;;;;;;;;;;6158307;23;20429;-90
2023/01/17 15:21:16;;;;;;;5.28;3.20;;;;;;;;;;6158347;23;20051;-93
2023/01/17 15:23:41;;;;;;;;;;;;;;;;;;6157658;23;20044;-91
2023/01/17 15:26:13;;;;;;;5.97;2.95;;;;;;;;;;6156963;23;20280;-92
2023/01/17 15:28:40;;;;;;;4.88;3.17;;;;;;;;;;6157052;23;20088;-91
2023/01/17 15:31:12;;;;;;;5.15;3.20;;;;;;;;;;6183269;23;20071;-92
2023/01/17 15:33:48;;;;;;;3.15;2.75;;;;;;;;;;6157440;23;20025;-91
2023/01/17 15:36:21;;;;;;;4.18;2.70;;;;;;;;;;6156925;23;20446;-89
2023/01/17 15:38:51;;;;;;;5.13;3.17;;;;;;;;;;6156717;23;19997;-90
2023/01/17 15:41:20;;;;;;;3.78;3.00;;;;;;;;;;6156955;23;20009;-90
2023/01/17 15:43:46;;;;;;;6.38;3.47;;;;;;;;;;6157125;23;20008;-92
2023/01/17 15:46:22;;;;;;;6.03;3.15;;;;;;;;;;6156853;23;20378;-92
2023/01/17 15:48:49;;;;;;;7.10;3.33;;;;;;;;;;6156764;23;20001;-92
2023/01/17 15:51:29;;;;;;;5.90;3.22;;;;;;;;;;6158256;23;20067;-91
2023/01/17 15:53:55;;;;;;;5.10;3.40;;;;;;;;;;6157239;23;20052;-90
2023/01/17 15:56:31;;;;;;;4.72;3.20;;;;;;;;;;6157373;23;20007;-90
2023/01/17 15:59:16;;;;;;;6.53;3.72;;;;;;;;;;6156933;23;20510;-94
2023/01/17 16:01:54;;;;;;;9.05;4.35;;;;;;;;;;6156756;23;20088;-89
2023/01/17 16:04:25;;;;;;;4.95;3.63;;;;;;;;;;6156970;23;20005;-90
2023/01/17 16:06:51;;;;;;;7.63;3.90;;;;;;;;;;6158027;23;20007;-89
2023/01/17 16:09:21;;;;;;;6.40;3.70;;;;;;;;;;6158208;23;20071;-92
2023/01/17 16:11:47;;;;;;;5.03;3.33;;;;;;;;;;6157439;23;20059;-93
2023/01/17 16:14:13;;;;;;;4.75;3.60;;;;;;;;;;6184162;23;19993;-91
2023/01/17 16:16:39;;;;;;;3.67;3.15;;;;;;;;;;6182871;23;20338;-89
2023/01/17 16:19:05;;;;;;;4.70;3.25;;;;;;;;;;6157658;23;20341;-90
2023/01/17 16:21:31;;;;;;;4.35;3.20;;;;;;;;;;6157018;23;20482;-90
2023/01/17 16:24:02;;;;;;;6.95;3.20;;;;;;;;;;6156088;23;20008;-90
2023/01/17 16:26:28;;;;;;;3.58;3.15;;;;;;;;;;6156850;23;20055;-92
2023/01/17 16:28:54;;;;;;;4.13;3.05;;;;;;;;;;6182218;23;20001;-91
2023/01/17 16:31:20;;;;;;;10.32;5.78;;;;;;;;;;6182854;23;20072;-91
2023/01/17 16:33:48;;;;;;;13.52;6.95;;;;;;;;;;6157439;23;20005;-90
2023/01/17 16:36:15;;;;;;;9.88;6.40;;;;;;;;;;6183881;23;20448;-92
2023/01/17 16:38:42;;;;;;;64.75;30.30;;;;;;;;;;6157018;23;20036;-90
2023/01/17 16:41:10;;;;;;;37.53;18.80;;;;;;;;;;6157442;23;20032;-92
2023/01/17 16:43:48;;;;;;;6.97;4.55;;;;;;;;;;6157557;23;20064;-92
2023/01/17 16:46:14;;;;;;;8.70;5.05;;;;;;;;;;6156445;23;20009;-91
2023/01/17 16:48:40;;;;;;;13.65;7.18;;;;;;;;;;6156232;23;20005;-91
2023/01/17 16:51:26;;;;;;;8.95;4.72;;;;;;;;;;6159546;23;20472;-94
2023/01/17 16:54:21;;;;;;;9.35;4.68;;;;;;;;;;6166808;23;20062;-94
2023/01/17 16:56:53;;;;;;;7.40;4.70;;;;;;;;;;6152661;23;20009;-93
2023/01/17 16:59:44;;;;;;;9.77;4.40;;;;;;;;;;6145500;23;20049;-94
2023/01/17 17:02:29;;;;;;;9.75;5.15;;;;;;;;;;6132414;23;20005;-94
2023/01/17 17:04:55;;;;;;;19.55;12.25;;;;;;;;;;6114273;23;20006;-93
2023/01/17 17:07:21;;;;;;;44.08;27.73;;;;;;;;;;6139792;23;20017;-94
2023/01/17 17:09:48;;;;;;;52.20;33.10;;;;;;;;;;6115568;23;20010;-94
2023/01/17 17:12:14;;;;;;;15.63;9.32;;;;;;;;;;6115897;23;20010;-94
2023/01/17 17:14:41;;;;;;;77.22;48.13;;;;;;;;;;6112839;23;20068;-95
2023/01/17 17:17:17;;;;;;;21.90;12.98;;;;;;;;;;6117693;23;20013;-94
2023/01/17 17:20:05;;;;;;;15.70;10.57;;;;;;;;;;6124014;23;19993;-89
2023/01/17 17:23:01;;;;;;;14.30;8.02;;;;;;;;;;6098926;23;20022;-89
2023/01/17 17:25:49;;;;;;;26.85;20.52;;;;;;;;;;6120697;23;20049;-93
2023/01/17 17:32:23;;;;;;;44.90;27.85;;;;;;;;;;6060929;23;20054;-92
2023/01/17 17:34:44;;;;;;;13.15;8.57;;;;;;;;;;6064484;23;20073;-88
2023/01/17 17:37:41;;;;;;;;;;;;;;;;;;;;;
2023/01/17 17:40:15;;;;;;;6.78;4.05;;;;;;;;;;6115071;23;20019;-93
2023/01/17 17:43:04;;;;;;;8.02;4.57;;;;;;;;;;6119121;23;20006;-92
2023/01/17 17:46:22;;;;;;;18.27;12.48;;;;;;;;;;6090902;23;20010;-90
2023/01/17 17:48:49;;;;;;;;;;;;;;;;;;6060885;23;19995;-90
2023/01/17 17:51:28;;;;;;;18.73;14.73;;;;;;;;;;6091542;23;19909;-91
2023/01/17 17:54:27;;;;;;;11.98;9.13;;;;;;;;;;6073924;23;20011;-94
2023/01/17 17:57:15;;;;;;;21.38;15.43;;;;;;;;;;6093447;23;20002;-93
2023/01/17 18:00:23;;;;;;;7.80;6.10;;;;;;;;;;6083009;23;20013;-93
2023/01/17 18:02:48;;;;;;;10.07;5.63;;;;;;;;;;6119294;23;20024;-93
2023/01/17 18:05:14;;;;;;;9.55;5.40;;;;;;;;;;6123532;23;20424;-89
2023/01/17 18:07:40;;;;;;;9.60;6.50;;;;;;;;;;6124807;23;20006;-93
2023/01/17 18:10:07;;;;;;;8.75;5.95;;;;;;;;;;6122983;23;20078;-92
2023/01/17 18:12:35;;;;;;;9.05;5.78;;;;;;;;;;6127388;23;20006;-92
2023/01/17 18:15:01;;;;;;;10.90;5.68;;;;;;;;;;6122949;23;20044;-92
2023/01/17 18:17:27;;;;;;;9.35;4.95;;;;;;;;;;6149711;23;20001;-90
2023/01/17 18:20:01;;;;;;;6.20;3.95;;;;;;;;;;6137519;23;20065;-92
2023/01/17 18:22:42;;;;;;;4.35;2.70;;;;;;;;;;6144936;23;20020;-91
2023/01/17 18:25:28;;;;;;;2.20;2.00;;;;;;;;;;6121218;23;20012;-92
2023/01/17 18:27:59;;;;;;;2.75;2.00;;;;;;;;;;6166373;23;20010;-90
2023/01/17 18:30:25;;;;;;;2.90;2.17;;;;;;;;;;6163857;23;20014;-92
2023/01/17 18:32:51;;;;;;;2.13;2.03;;;;;;;;;;6139867;23;20015;-94
2023/01/17 18:35:35;;;;;;;2.20;2.00;;;;;;;;;;6144967;23;20005;-93
2023/01/17 18:38:01;;;;;;;2.13;2.03;;;;;;;;;;6178382;23;20012;-92
2023/01/17 18:40:29;;;;;;;2.22;2.10;;;;;;;;;;6201700;23;20005;-93
2023/01/17 18:42:59;;;;;;;2.80;2.58;;;;;;;;;;6176335;23;20001;-92
2023/01/17 18:45:45;;;;;;;2.50;2.30;;;;;;;;;;6182515;23;20005;-91
2023/01/17 18:48:36;;;;;;;2.70;2.50;;;;;;;;;;6206977;23;20009;-88
2023/01/17 18:57:21;;;;;;;2.90;2.60;;;;;;;;;;6162000;23;20005;-89
2023/01/17 18:59:54;;;;;;;2.90;2.70;;;;;;;;;;6210652;23;20001;-88
2023/01/17 19:02:39;;;;;;;3.20;2.90;;;;;;;;;;6205475;23;20044;-91
2023/01/17 19:05:45;;;;;;;3.30;3.00;;;;;;;;;;6204729;23;19989;-91
2023/01/17 19:08:15;;;;;;;2.50;2.30;;;;;;;;;;6183667;23;20032;-92
2023/01/17 19:11:24;;;;;;;4.55;2.72;;;;;;;;;;6207894;23;20013;-92
2023/01/17 19:14:09;;;;;;;;;;;;;;;;;;;;;
2023/01/17 19:17:23;;;;;;;2.63;2.30;;;;;;;;;;6091491;23;19987;-92
2023/01/17 19:20:17;;;;;;;;;;;;;;;;;;;;;
2023/01/17 19:32:44;;;;;;;5.60;3.65;;;;;;;;;;6072899;23;20013;-90
2023/01/17 19:39:29;;;;;;;;;;;;;;;;;;;;;
2023/01/17 19:49:38;;;;;;;;;;;;;;;;;;;;;
2023/01/17 19:52:31;;;;;;;;;;;;;;;;;;;;;
2023/01/17 22:01:48;;;;;;;20.77;9.25;;;2.20;99.90;;;;;;6176248;23;20437;-90
2023/01/17 22:04:14;;;;;;;10.02;7.05;;;2.20;99.90;;;;;;6216282;23;20340;-89
2023/01/17 22:06:58;;;;;;;;;;;;;;;;;;;;;
2023/01/17 22:09:54;;;;;;;;;;;;;;;;;;;;;
2023/01/17 22:12:27;;;;;;;11.60;5.20;;;1.80;99.90;;;;;;6244770;23;20138;-90
2023/01/17 22:15:03;;;;;;;9.13;5.43;;;2.10;99.90;;;;;;6218447;23;20004;-89
2023/01/17 22:17:29;;;;;;;10.35;5.20;;;3.10;99.90;;;;;;6217713;23;20444;-90
2023/01/17 22:19:55;;;;;;;13.88;5.03;;;2.60;99.90;;;;;;6218638;23;20004;-89
2023/01/17 22:22:29;;;;;;;9.00;5.15;;;2.90;99.90;;;;;;6217998;23;20464;-89
2023/01/17 22:24:58;;;;;;;7.38;4.78;;;2.10;99.90;;;;;;6219174;23;20011;-91
2023/01/17 22:27:27;;;;;;;9.25;4.50;;;2.50;99.90;;;;;;6218272;23;20330;-89
2023/01/17 22:29:53;;;;;;;13.25;4.80;;;2.00;99.90;;;;;;6218217;23;20395;-89
2023/01/17 22:32:18;;;;;;;9.43;4.43;;;3.20;99.90;;;;;;6217894;23;20445;-90
2023/01/17 22:34:44;;;;;;;8.38;4.40;;;3.10;99.90;;;;;;6217658;23;20436;-88
2023/01/17 22:37:10;;;;;;;6.43;4.03;;;2.70;99.90;;;;;;6218203;23;20062;-89
2023/01/17 22:39:50;;;;;;;;;;;;;;;;;;;;;
2023/01/17 22:42:16;;;;;;;9.50;3.60;;;1.70;99.90;;;;;;6244413;23;20500;-92
2023/01/17 22:44:46;;;;;;;7.95;3.78;;;2.90;99.90;;;;;;6218175;23;20027;-90
2023/01/17 22:47:13;;;;;;;8.68;3.70;;;2.30;99.90;;;;;;6217433;23;20333;-88
2023/01/17 22:49:39;;;;;;;7.07;3.40;;;3.10;99.90;;;;;;6217534;23;20001;-89
2023/01/17 22:52:04;;;;;;;12.20;3.72;;;1.70;99.90;;;;;;6217370;23;20420;-91
2023/01/17 22:54:30;;;;;;;5.53;3.20;;;3.00;99.90;;;;;;6217245;23;20000;-88
2023/01/17 22:57:03;;;;;;;4.22;2.70;;;2.30;99.90;;;;;;6218209;23;20405;-89
2023/01/17 22:59:47;;;;;;;4.68;2.80;;;2.80;99.90;;;;;;6218046;23;20090;-89
2023/01/17 23:02:17;;;;;;;6.72;2.80;;;2.90;99.90;;;;;;6217435;23;20008;-89
2023/01/17 23:04:50;;;;;;;4.30;2.60;;;1.80;99.90;;;;;;6217276;23;20020;-89
2023/01/17 23:07:18;;;;;;;4.63;3.17;;;2.50;99.90;;;;;;6216998;23;20325;-90
2023/01/17 23:09:44;;;;;;;6.88;3.20;;;2.40;99.90;;;;;;6217865;23;20429;-89
2023/01/17 23:12:10;;;;;;;6.28;2.83;;;1.60;99.90;;;;;;6217954;23;20015;-90
2023/01/17 23:20:19;;;;;;;6.53;3.83;;;1.60;99.90;;;;;;6243773;23;20066;-89
2023/01/17 23:22:48;;;;;;;8.35;5.00;;;1.60;99.90;;;;;;6217206;23;20011;-89
2023/01/17 23:25:16;;;;;;;;;;;2.00;99.90;;;;;;6217557;23;20044;-88
2023/01/17 23:30:37;;;;;;;3.88;2.45;;;1.90;99.90;;;;;;6244569;23;20022;-89
2023/01/17 23:33:26;;;;;;;5.20;2.40;;;2.50;99.90;;;;;;6216874;23;19996;-89
2023/01/17 23:35:52;;;;;;;4.38;2.30;;;1.70;99.90;;;;;;6207303;23;20016;-89